National Weather Service Raw Text Product

Displaying AFOS PIL: TAFALO Received: 2018-02-14 11:20 UTC


755 
FTUS43 KDMX 141120
TAFALO
TAF
KALO 141120Z 1412/1512 18006KT 5SM BR FEW250
     FM141500 19009KT P6SM FEW250
     FM141900 20010G17KT P6SM SCT200
     FM150000 21009KT P6SM SCT200
     FM150900 24004KT 4SM BR BKN100=